createdAt,value
2022-11-03T00:01:53.132Z,101530.25
2022-11-03T00:07:00.378Z,101519.69
2022-11-03T00:12:08.277Z,101519.53
2022-11-03T00:17:17.788Z,101517.03
2022-11-03T00:22:22.025Z,101496.47
2022-11-03T00:27:23.742Z,101505.31
2022-11-03T00:32:25.418Z,101490.28
2022-11-03T00:37:29.637Z,101473.41
2022-11-03T00:42:35.138Z,101476.75
2022-11-03T00:47:59.352Z,101463.38
2022-11-03T00:53:01.035Z,101471.75
2022-11-03T00:58:08.434Z,101462.06
2022-11-03T01:03:14.760Z,101473.75
2022-11-03T01:08:16.481Z,101462.88
2022-11-03T01:13:19.029Z,101471.41
2022-11-03T01:18:20.729Z,101474.06
2022-11-03T01:23:31.258Z,101470.41
2022-11-03T01:28:43.559Z,101446.69
2022-11-03T01:33:49.849Z,101426.78
2022-11-03T01:38:51.560Z,101419.72
2022-11-03T01:44:08.266Z,101405.53
2022-11-03T01:49:17.775Z,101414.56
2022-11-03T01:54:24.221Z,101397.84
2022-11-03T01:59:29.514Z,101387.66
2022-11-03T02:04:34.947Z,101376.44
2022-11-03T02:09:42.281Z,101383.81
2022-11-03T02:15:05.803Z,101368.94
2022-11-03T02:20:16.179Z,101374.63
2022-11-03T02:25:28.448Z,101365.75
2022-11-03T02:30:43.154Z,101356.06
2022-11-03T02:35:59.884Z,101354.56
2022-11-03T02:41:10.413Z,101338.53
2022-11-03T02:46:13.833Z,101330.66
2022-11-03T02:51:18.125Z,101327.31
2022-11-03T02:56:25.040Z,101315.97
2022-11-03T03:01:47.606Z,101322.47
2022-11-03T03:06:57.744Z,101309.28
2022-11-03T03:12:00.623Z,101297.75
2022-11-03T03:17:11.354Z,101297.91
2022-11-03T03:22:28.544Z,101288.06
2022-11-03T03:27:32.928Z,101288.22
2022-11-03T03:32:45.958Z,101285.56
2022-11-03T03:37:53.629Z,101287.88
2022-11-03T03:42:55.711Z,101291.41
2022-11-03T03:47:58.202Z,101285.41
2022-11-03T03:53:05.075Z,101286.38
2022-11-03T03:58:07.998Z,101273.00
2022-11-03T04:03:21.019Z,101287.88
2022-11-03T04:08:22.673Z,101273.69
2022-11-03T04:13:43.008Z,101265.50
2022-11-03T04:19:16.734Z,101262.16
2022-11-03T04:24:18.441Z,101251.31
2022-11-03T04:29:20.156Z,101247.63
2022-11-03T04:34:23.819Z,101250.00
2022-11-03T04:39:31.494Z,101254.47
2022-11-03T04:44:37.040Z,101241.97
2022-11-03T04:49:43.362Z,101246.47
2022-11-03T04:54:45.227Z,101241.09
2022-11-03T04:59:51.612Z,101228.41
2022-11-03T05:04:53.336Z,101221.25
2022-11-03T05:09:57.338Z,101217.56
2022-11-03T05:15:08.276Z,101206.03
2022-11-03T05:20:28.191Z,101182.47
2022-11-03T05:25:35.487Z,101181.63
2022-11-03T05:30:37.271Z,101186.31
2022-11-03T05:35:42.436Z,101179.13
2022-11-03T05:40:44.276Z,101179.97
2022-11-03T05:45:55.807Z,101170.13
2022-11-03T05:51:00.425Z,101149.09
2022-11-03T05:56:06.173Z,101154.25
2022-11-03T06:01:30.815Z,101149.41
2022-11-03T06:06:35.465Z,101147.41
2022-11-03T06:11:37.549Z,101140.56
2022-11-03T06:16:43.967Z,101148.91
2022-11-03T06:21:49.492Z,101126.69
2022-11-03T06:26:52.293Z,101140.88
2022-11-03T06:31:56.189Z,101130.19
2022-11-03T06:36:59.561Z,101126.19
2022-11-03T06:42:13.128Z,101117.19
2022-11-03T06:47:23.115Z,101115.84
2022-11-03T06:52:33.803Z,101111.16
2022-11-03T06:57:38.099Z,101102.78
2022-11-03T07:02:48.076Z,101107.63
2022-11-03T07:08:00.398Z,101118.00
2022-11-03T07:13:13.084Z,101104.09
2022-11-03T07:18:23.674Z,101102.91
2022-11-03T07:23:31.855Z,101109.06
2022-11-03T07:28:39.695Z,101104.03
2022-11-03T07:33:43.950Z,101098.81
2022-11-03T07:38:55.602Z,101089.94
2022-11-03T07:44:02.233Z,101089.56
2022-11-03T07:49:08.957Z,101092.38
2022-11-03T07:54:21.352Z,101073.78
2022-11-03T07:59:41.179Z,101066.94
2022-11-03T08:04:51.727Z,101062.53
2022-11-03T08:09:55.820Z,101050.78
2022-11-03T08:14:57.558Z,101042.88
2022-11-03T08:19:59.263Z,101051.84
2022-11-03T08:25:01.016Z,101055.63
2022-11-03T08:30:05.411Z,101044.88
2022-11-03T08:35:09.895Z,101028.09
2022-11-03T08:40:13.333Z,101024.53
2022-11-03T08:45:17.800Z,101012.72
2022-11-03T08:50:19.572Z,101018.00
2022-11-03T08:55:22.467Z,101009.50
2022-11-03T09:00:24.905Z,100997.84
2022-11-03T09:05:31.218Z,100991.38
2022-11-03T09:10:36.906Z,100990.47
2022-11-03T09:15:44.918Z,100995.16
2022-11-03T09:20:51.201Z,100984.78
2022-11-03T09:25:55.250Z,100995.03
2022-11-03T09:30:58.713Z,100965.06
2022-11-03T09:36:02.874Z,100976.50
2022-11-03T09:41:13.513Z,100969.16
2022-11-03T09:46:36.046Z,100974.06
2022-11-03T09:51:39.923Z,100968.75
2022-11-03T09:56:44.235Z,100966.72
2022-11-03T10:01:50.180Z,100960.06
2022-11-03T10:06:52.439Z,100955.97
2022-11-03T10:11:56.586Z,100951.94
2022-11-03T10:17:02.368Z,100941.81
2022-11-03T10:22:04.628Z,100937.94
2022-11-03T10:27:29.016Z,100932.63
2022-11-03T10:32:34.205Z,100918.03
2022-11-03T10:37:39.932Z,100910.84
2022-11-03T10:43:01.388Z,100898.91
2022-11-03T10:48:09.182Z,100894.25
2022-11-03T10:53:18.347Z,100894.53
2022-11-03T10:58:22.463Z,100891.06
2022-11-03T11:03:24.578Z,100880.56
2022-11-03T11:08:26.479Z,100883.31
2022-11-03T11:13:29.443Z,100863.53
2022-11-03T11:18:31.243Z,100851.38
2022-11-03T11:23:36.311Z,100844.78
2022-11-03T11:28:41.927Z,100830.31
2022-11-03T11:33:43.673Z,100826.75
2022-11-03T11:38:48.348Z,100812.25
2022-11-03T11:44:41.747Z,100795.88
2022-11-03T11:49:45.557Z,100803.53
2022-11-03T11:54:52.162Z,100782.03
2022-11-03T11:59:56.245Z,100772.72
2022-11-03T12:05:01.299Z,100766.72
2022-11-03T12:10:12.325Z,100758.03
2022-11-03T12:15:51.546Z,100748.09
2022-11-03T12:20:57.747Z,100733.66
2022-11-03T12:25:59.540Z,100728.25
2022-11-03T12:31:06.837Z,100718.94
2022-11-03T12:36:09.110Z,100711.47
2022-11-03T12:41:22.678Z,100706.91
2022-11-03T12:46:24.487Z,100700.72
2022-11-03T12:51:30.639Z,100710.25
2022-11-03T12:56:35.777Z,100692.88
2022-11-03T13:01:39.939Z,100690.19
2022-11-03T13:06:41.992Z,100680.88
2022-11-03T13:12:03.208Z,100684.00
2022-11-03T13:17:07.342Z,100681.09
2022-11-03T13:22:09.165Z,100667.88
2022-11-03T13:27:15.493Z,100657.50
2022-11-03T13:32:17.513Z,100655.06
2022-11-03T13:37:21.605Z,100645.53
2022-11-03T13:42:26.382Z,100629.38
2022-11-03T13:47:49.659Z,100614.09
2022-11-03T13:52:50.296Z,100597.13
2022-11-03T14:08:44.581Z,100560.56
2022-11-03T14:13:46.470Z,100543.19
2022-11-03T14:18:49.244Z,100526.88
2022-11-03T14:23:54.913Z,100515.28
2022-11-03T14:29:04.465Z,100526.47
2022-11-03T14:34:08.643Z,100516.53
2022-11-03T14:39:12.914Z,100508.69
2022-11-03T14:44:17.824Z,100502.31
2022-11-03T14:49:19.624Z,100487.81
2022-11-03T14:54:28.107Z,100475.66
2022-11-03T14:59:34.430Z,100473.16
2022-11-03T15:04:36.925Z,100464.47
2022-11-03T15:09:39.581Z,100453.97
2022-11-03T15:14:47.147Z,100428.97
2022-11-03T15:19:48.876Z,100429.19
2022-11-03T15:30:15.261Z,100421.34
2022-11-03T15:35:17.907Z,100400.25
2022-11-03T15:40:21.127Z,100396.13
2022-11-03T15:45:25.244Z,100399.25
2022-11-03T15:50:29.755Z,100377.16
2022-11-03T15:55:34.043Z,100359.81
2022-11-03T16:00:37.649Z,100354.03
2022-11-03T16:05:44.418Z,100344.16
2022-11-03T16:10:56.465Z,100330.09
2022-11-03T16:15:59.815Z,100316.88
2022-11-03T16:21:03.996Z,100299.56
2022-11-03T16:26:16.257Z,100312.53
2022-11-03T16:36:56.909Z,100308.44
2022-11-03T16:42:08.184Z,100290.06
2022-11-03T16:47:13.563Z,100287.59
2022-11-03T16:52:35.997Z,100302.06
2022-11-03T16:58:32.048Z,100297.94
2022-11-03T17:03:53.974Z,100286.78
2022-11-03T17:09:52.472Z,100291.31
2022-11-03T17:16:24.753Z,100271.69
2022-11-03T17:21:46.381Z,100275.44
2022-11-03T17:27:07.724Z,100272.13
2022-11-03T17:32:38.587Z,100271.31
2022-11-03T17:43:33.120Z,100245.94
2022-11-03T17:48:40.491Z,100244.50
2022-11-03T17:53:43.027Z,100230.47
2022-11-03T17:58:47.466Z,100226.94
2022-11-03T18:03:49.346Z,100229.00
2022-11-03T18:08:52.150Z,100215.78
2022-11-03T18:13:57.989Z,100211.44
2022-11-03T18:18:59.744Z,100209.00
2022-11-03T18:24:01.500Z,100200.94
2022-11-03T18:29:03.774Z,100187.97
2022-11-03T18:34:10.273Z,100175.78
2022-11-03T18:39:17.296Z,100178.47
2022-11-03T18:44:22.811Z,100163.81
2022-11-03T18:49:25.648Z,100149.19
2022-11-03T18:54:28.334Z,100146.91
2022-11-03T18:59:37.170Z,100139.91
2022-11-03T19:04:41.229Z,100132.06
2022-11-03T19:09:45.828Z,100120.53
2022-11-03T19:14:48.151Z,100107.31
2022-11-03T19:19:49.990Z,100102.16
2022-11-03T19:24:55.131Z,100095.78
2022-11-03T19:30:00.063Z,100097.66
2022-11-03T19:35:19.784Z,100096.19
2022-11-03T19:40:25.052Z,100095.81
2022-11-03T19:45:28.847Z,100100.13
2022-11-03T19:50:32.391Z,100083.44
2022-11-03T19:55:39.033Z,100090.47
2022-11-03T20:00:40.803Z,100067.59
2022-11-03T20:05:49.613Z,100068.44
2022-11-03T20:10:51.731Z,100056.06
2022-11-03T20:16:01.108Z,100051.53
2022-11-03T20:21:07.320Z,100042.69
2022-11-03T20:26:21.454Z,100048.66
2022-11-03T20:31:24.079Z,100027.63
2022-11-03T20:36:26.491Z,100031.34
2022-11-03T20:41:29.336Z,100037.53
2022-11-03T20:46:33.560Z,100033.22
2022-11-03T20:51:38.485Z,100038.34
2022-11-03T20:56:40.521Z,100026.44
2022-11-03T21:01:42.725Z,100019.00
2022-11-03T21:06:45.926Z,100011.78
2022-11-03T21:11:51.047Z,99994.69
2022-11-03T21:17:11.256Z,99990.56
2022-11-03T21:22:38.305Z,99997.59
2022-11-03T21:27:43.233Z,99979.44
2022-11-03T21:32:45.103Z,99979.03
2022-11-03T21:37:47.296Z,99967.25
2022-11-03T21:43:07.337Z,99967.06
2022-11-03T21:48:27.567Z,99972.22
2022-11-03T21:53:32.090Z,99970.97
2022-11-03T21:58:36.243Z,99968.69
2022-11-03T22:03:45.639Z,99979.19
2022-11-03T22:08:50.109Z,99965.59
2022-11-03T22:13:56.556Z,99961.06
2022-11-03T22:19:16.949Z,99957.13
2022-11-03T22:24:39.549Z,99953.63
2022-11-03T22:30:18.758Z,99946.22
2022-11-03T22:35:43.174Z,99956.72
2022-11-03T22:41:06.744Z,99943.94
2022-11-03T22:46:09.749Z,99936.91
2022-11-03T22:51:16.865Z,99931.56
2022-11-03T22:56:20.618Z,99932.59
2022-11-03T23:01:31.705Z,99915.91
2022-11-03T23:06:38.328Z,99910.75
2022-11-03T23:11:50.703Z,99913.66
2022-11-03T23:16:56.686Z,99917.56
2022-11-03T23:22:07.696Z,99913.66
2022-11-03T23:27:18.947Z,99909.75
2022-11-03T23:32:29.475Z,99906.22
2022-11-03T23:37:36.367Z,99902.13
2022-11-03T23:42:48.057Z,99897.59
2022-11-03T23:48:14.443Z,99905.44
2022-11-03T23:53:23.018Z,99902.59
2022-11-03T23:58:28.410Z,99903.00
